createdAt,value
2023-11-03T00:00:33.224Z,11.50
2023-11-03T00:03:00.426Z,11.50
2023-11-03T00:05:27.386Z,11.50
2023-11-03T00:07:54.099Z,11.50
2023-11-03T00:10:21.081Z,11.50
2023-11-03T00:12:47.829Z,11.40
2023-11-03T00:15:14.556Z,11.50
2023-11-03T00:17:42.894Z,11.50
2023-11-03T00:20:15.726Z,11.50
2023-11-03T00:22:43.442Z,11.50
2023-11-03T00:25:14.786Z,11.50
2023-11-03T00:27:44.000Z,11.40
2023-11-03T00:30:12.680Z,11.50
2023-11-03T00:32:40.041Z,11.50
2023-11-03T00:35:09.642Z,11.40
2023-11-03T00:37:37.633Z,11.40
2023-11-03T00:40:14.449Z,11.40
2023-11-03T00:42:41.440Z,11.40
2023-11-03T00:45:08.518Z,11.40
2023-11-03T00:47:35.482Z,11.50
2023-11-03T00:50:02.916Z,11.50
2023-11-03T00:52:29.671Z,11.50
2023-11-03T00:54:56.462Z,11.40
2023-11-03T00:57:24.235Z,11.40
2023-11-03T00:59:51.173Z,11.50
2023-11-03T01:02:19.203Z,11.40
2023-11-03T01:04:46.539Z,11.40
2023-11-03T01:07:13.523Z,11.40
2023-11-03T01:09:40.477Z,11.40
2023-11-03T01:12:08.197Z,11.40
2023-11-03T01:14:35.159Z,11.40
2023-11-03T01:17:03.616Z,11.30
2023-11-03T01:19:32.380Z,11.40
2023-11-03T01:22:00.772Z,11.40
2023-11-03T01:24:27.826Z,11.40
2023-11-03T01:26:54.523Z,11.40
2023-11-03T01:29:21.486Z,11.40
2023-11-03T01:31:48.231Z,11.40
2023-11-03T01:34:15.074Z,11.30
2023-11-03T01:36:41.833Z,11.30
2023-11-03T01:39:09.668Z,11.30
2023-11-03T01:41:36.672Z,11.30
2023-11-03T01:44:10.333Z,11.30
2023-11-03T01:46:39.075Z,11.30
2023-11-03T01:49:07.637Z,11.20
2023-11-03T01:51:35.454Z,11.30
2023-11-03T01:54:05.002Z,11.30
2023-11-03T01:56:32.626Z,11.30
2023-11-03T01:59:03.208Z,11.20
2023-11-03T02:01:30.386Z,11.20
2023-11-03T02:03:57.254Z,11.20
2023-11-03T02:06:24.271Z,12.50
2023-11-03T02:08:51.078Z,11.20
2023-11-03T02:11:44.783Z,11.20
2023-11-03T02:14:12.327Z,11.00
2023-11-03T02:16:39.185Z,11.90
2023-11-03T02:19:11.461Z,11.20
2023-11-03T02:21:39.431Z,11.10
2023-11-03T02:24:07.419Z,11.10
2023-11-03T02:26:34.129Z,11.10
2023-11-03T02:29:01.171Z,11.10
2023-11-03T02:31:27.956Z,11.20
2023-11-03T02:33:54.781Z,11.10
2023-11-03T02:36:22.898Z,11.00
2023-11-03T02:41:16.997Z,11.10
2023-11-03T02:43:43.788Z,11.00
2023-11-03T02:46:10.859Z,11.00
2023-11-03T02:48:37.705Z,11.00
2023-11-03T02:51:04.733Z,11.00
2023-11-03T02:53:31.826Z,11.00
2023-11-03T02:55:58.635Z,11.00
2023-11-03T02:58:33.388Z,11.00
2023-11-03T03:01:00.131Z,11.00
2023-11-03T03:03:26.838Z,11.10
2023-11-03T03:05:53.623Z,11.00
2023-11-03T03:08:20.443Z,11.00
2023-11-03T03:10:47.157Z,11.00
2023-11-03T03:13:14.086Z,11.00
2023-11-03T03:15:40.795Z,10.90
2023-11-03T03:18:07.553Z,10.90
2023-11-03T03:20:34.261Z,10.90
2023-11-03T03:23:00.933Z,10.90
2023-11-03T03:25:27.655Z,10.90
2023-11-03T03:27:56.358Z,10.90
2023-11-03T03:30:23.226Z,10.90
2023-11-03T03:32:50.174Z,10.80
2023-11-03T03:35:16.950Z,10.80
2023-11-03T03:37:44.132Z,10.80
2023-11-03T03:40:13.807Z,10.80
2023-11-03T03:42:40.555Z,10.80
2023-11-03T03:45:08.036Z,10.80
2023-11-03T03:47:34.944Z,10.70
2023-11-03T03:50:02.076Z,10.70
2023-11-03T03:57:44.972Z,10.50
2023-11-03T04:00:12.334Z,10.50
2023-11-03T04:07:33.520Z,10.30
2023-11-03T04:14:55.128Z,10.10
2023-11-03T04:19:49.050Z,10.20
2023-11-03T04:22:15.761Z,10.20
2023-11-03T04:27:09.705Z,10.20
2023-11-03T04:32:03.764Z,10.10
2023-11-03T04:36:57.873Z,10.20
2023-11-03T04:39:26.535Z,10.20
2023-11-03T04:41:53.268Z,10.10
2023-11-03T04:44:20.013Z,10.10
2023-11-03T04:49:13.851Z,10.00
2023-11-03T04:51:42.114Z,9.90
2023-11-03T04:56:37.684Z,9.80
2023-11-03T04:59:06.468Z,9.70
2023-11-03T05:04:01.983Z,9.70
2023-11-03T05:06:28.697Z,9.80
2023-11-03T05:08:55.571Z,9.70
2023-11-03T05:11:23.021Z,9.70
2023-11-03T05:13:49.809Z,9.70
2023-11-03T05:16:16.601Z,9.70
2023-11-03T05:21:13.955Z,9.60
2023-11-03T05:26:11.806Z,9.50
2023-11-03T05:28:38.553Z,9.50
2023-11-03T05:31:06.535Z,9.40
2023-11-03T05:38:28.110Z,9.30
2023-11-03T05:45:49.770Z,9.40
2023-11-03T05:48:16.475Z,9.40
2023-11-03T05:50:43.832Z,9.40
2023-11-03T05:58:05.491Z,9.40
2023-11-03T06:07:54.921Z,9.30
2023-11-03T06:12:48.809Z,9.30
2023-11-03T06:15:15.637Z,9.30
2023-11-03T06:17:42.371Z,9.20
2023-11-03T06:20:09.699Z,9.20
2023-11-03T06:22:36.476Z,9.20
2023-11-03T06:25:05.005Z,9.20
2023-11-03T06:39:51.705Z,9.20
2023-11-03T06:42:19.825Z,9.20
2023-11-03T06:47:13.627Z,9.10
2023-11-03T06:49:45.604Z,9.00
2023-11-03T06:59:35.659Z,9.00
2023-11-03T07:04:29.569Z,9.10
2023-11-03T07:09:24.280Z,9.10
2023-11-03T07:14:19.393Z,9.10
2023-11-03T07:16:48.930Z,9.10
2023-11-03T07:26:37.227Z,9.20
2023-11-03T07:29:05.361Z,9.20
2023-11-03T07:31:33.471Z,9.20
2023-11-03T07:34:01.502Z,9.20
2023-11-03T07:36:29.389Z,9.30
2023-11-03T07:43:50.588Z,9.40
2023-11-03T07:48:44.554Z,9.50
2023-11-03T07:53:38.634Z,9.60
2023-11-03T07:58:34.175Z,9.70
2023-11-03T08:15:48.092Z,11.10
2023-11-03T08:18:15.017Z,11.10
2023-11-03T08:23:10.615Z,11.30
2023-11-03T08:25:37.434Z,11.30
2023-11-03T08:28:04.381Z,11.40
2023-11-03T08:32:59.077Z,11.50
2023-11-03T08:37:56.606Z,11.60
2023-11-03T08:40:24.072Z,11.60
2023-11-03T08:42:51.730Z,11.50
2023-11-03T08:45:20.675Z,11.60
2023-11-03T08:47:47.786Z,11.50
2023-11-03T08:50:18.674Z,11.60
2023-11-03T08:52:46.397Z,11.50
2023-11-03T08:55:14.443Z,11.50
2023-11-03T08:57:43.268Z,11.40
2023-11-03T09:00:12.758Z,11.40
2023-11-03T09:02:42.942Z,11.40
2023-11-03T09:05:12.174Z,11.40
2023-11-03T09:07:40.756Z,11.40
2023-11-03T09:10:09.362Z,11.40
2023-11-03T09:12:36.960Z,11.40
2023-11-03T09:15:05.383Z,11.40
2023-11-03T09:17:32.956Z,11.40
2023-11-03T09:20:00.163Z,11.40
2023-11-03T09:22:35.664Z,11.40
2023-11-03T09:25:04.644Z,11.50
2023-11-03T09:27:33.153Z,11.60
2023-11-03T09:29:59.886Z,11.70
2023-11-03T09:32:28.608Z,11.90
2023-11-03T09:34:58.185Z,12.00
2023-11-03T09:39:52.309Z,12.10
2023-11-03T09:42:20.016Z,12.20
2023-11-03T09:44:47.438Z,12.20
2023-11-03T09:47:16.489Z,12.30
2023-11-03T09:49:47.247Z,12.50
2023-11-03T09:52:15.257Z,12.60
2023-11-03T09:54:42.653Z,12.70
2023-11-03T09:57:12.223Z,12.80
2023-11-03T09:59:40.428Z,12.70
2023-11-03T10:02:12.357Z,12.70
2023-11-03T10:07:07.939Z,12.80
2023-11-03T10:16:59.090Z,12.70
2023-11-03T10:19:26.812Z,12.60
2023-11-03T10:24:23.753Z,12.50
2023-11-03T10:26:54.595Z,12.60
2023-11-03T10:29:21.453Z,12.60
2023-11-03T10:31:49.758Z,12.60
2023-11-03T10:34:22.915Z,12.60
2023-11-03T10:36:52.408Z,12.50
2023-11-03T10:39:19.653Z,12.40
2023-11-03T10:41:47.361Z,12.40
2023-11-03T10:44:20.736Z,12.40
2023-11-03T10:47:02.270Z,12.30
2023-11-03T10:49:41.909Z,12.30
2023-11-03T10:52:14.963Z,12.40
2023-11-03T10:57:36.849Z,12.50
2023-11-03T11:00:11.060Z,12.60
2023-11-03T11:02:59.775Z,12.80
2023-11-03T11:05:36.386Z,13.10
2023-11-03T11:08:05.395Z,13.30
2023-11-03T11:10:36.904Z,13.30
2023-11-03T11:13:05.854Z,13.30
2023-11-03T11:18:18.478Z,13.50
2023-11-03T11:20:52.854Z,13.40
2023-11-03T11:23:22.685Z,13.30
2023-11-03T11:25:53.525Z,13.30
2023-11-03T11:28:34.308Z,13.30
2023-11-03T11:33:30.756Z,13.40
2023-11-03T11:35:57.672Z,13.40
2023-11-03T11:38:27.446Z,13.40
2023-11-03T11:40:55.758Z,13.40
2023-11-03T11:43:31.348Z,13.50
2023-11-03T11:50:59.650Z,13.60
2023-11-03T11:55:53.645Z,13.60
2023-11-03T11:58:20.796Z,13.50
2023-11-03T12:00:47.580Z,13.50
2023-11-03T12:03:14.398Z,13.30
2023-11-03T12:05:41.636Z,13.40
2023-11-03T12:08:10.964Z,13.30
2023-11-03T12:10:38.653Z,13.30
2023-11-03T12:13:06.242Z,13.30
2023-11-03T12:15:33.111Z,13.30
2023-11-03T12:18:01.631Z,13.30
2023-11-03T12:20:28.409Z,13.40
2023-11-03T12:25:22.423Z,13.50
2023-11-03T12:27:56.213Z,13.50
2023-11-03T12:30:23.075Z,13.60
2023-11-03T12:32:50.532Z,13.90
2023-11-03T12:35:18.239Z,13.90
2023-11-03T12:40:22.820Z,13.70
2023-11-03T12:42:49.816Z,13.70
2023-11-03T12:45:17.317Z,13.80
2023-11-03T12:47:46.177Z,13.80
2023-11-03T12:50:27.424Z,13.80
2023-11-03T12:52:57.276Z,13.90
2023-11-03T12:55:27.773Z,13.80
2023-11-03T12:57:56.568Z,13.80
2023-11-03T13:00:25.388Z,13.90
2023-11-03T13:02:53.352Z,13.80
2023-11-03T13:05:20.475Z,13.80
2023-11-03T13:07:56.024Z,13.80
2023-11-03T13:10:24.787Z,13.90
2023-11-03T13:12:52.063Z,13.70
2023-11-03T13:15:19.070Z,13.60
2023-11-03T13:20:18.678Z,13.50
2023-11-03T13:22:53.249Z,13.50
2023-11-03T13:25:20.743Z,13.50
2023-11-03T13:27:47.943Z,13.50
2023-11-03T13:30:15.023Z,13.50
2023-11-03T13:32:50.695Z,13.60
2023-11-03T13:35:21.551Z,13.60
2023-11-03T13:37:49.614Z,13.50
2023-11-03T13:42:45.530Z,13.40
2023-11-03T13:45:12.331Z,13.40
2023-11-03T13:47:39.329Z,13.30
2023-11-03T13:50:15.631Z,13.30
2023-11-03T13:52:48.194Z,13.30
2023-11-03T13:55:15.672Z,13.10
2023-11-03T14:02:42.239Z,13.20
2023-11-03T14:05:11.782Z,13.10
2023-11-03T14:10:10.332Z,13.00
2023-11-03T14:12:39.324Z,13.00
2023-11-03T14:15:08.222Z,12.90
2023-11-03T14:22:31.830Z,12.90
2023-11-03T14:24:59.966Z,12.90
2023-11-03T14:29:55.019Z,12.80
2023-11-03T14:32:21.876Z,12.80
2023-11-03T14:34:48.633Z,12.70
2023-11-03T14:37:15.490Z,12.70
2023-11-03T14:42:09.491Z,12.60
2023-11-03T14:44:37.931Z,12.60
2023-11-03T14:49:32.326Z,12.50
2023-11-03T14:59:20.942Z,12.40
2023-11-03T15:01:47.727Z,12.40
2023-11-03T15:04:14.759Z,12.30
2023-11-03T15:09:08.720Z,12.20
2023-11-03T15:14:03.012Z,12.00
2023-11-03T15:21:25.446Z,11.80
2023-11-03T15:23:52.180Z,11.80
2023-11-03T15:26:19.327Z,11.70
2023-11-03T15:28:46.215Z,11.70
2023-11-03T15:31:13.161Z,11.50
2023-11-03T15:36:09.573Z,11.40
2023-11-03T15:38:37.142Z,11.40
2023-11-03T15:43:34.670Z,11.20
2023-11-03T15:46:05.040Z,11.20
2023-11-03T15:48:32.191Z,11.10
2023-11-03T15:55:56.627Z,10.90
2023-11-03T16:08:16.323Z,10.50
2023-11-03T16:10:45.299Z,10.50
2023-11-03T16:13:13.781Z,10.40
2023-11-03T16:15:41.973Z,10.40
2023-11-03T16:23:14.162Z,10.30
2023-11-03T16:28:12.667Z,10.10
2023-11-03T16:30:41.213Z,10.00
2023-11-03T16:35:38.587Z,9.80
2023-11-03T16:38:09.147Z,9.80
2023-11-03T16:43:03.485Z,9.70
2023-11-03T16:45:30.534Z,9.60
2023-11-03T16:47:57.429Z,9.60
2023-11-03T16:50:24.209Z,9.60
2023-11-03T16:55:19.694Z,9.40
2023-11-03T16:57:46.667Z,9.50
2023-11-03T17:00:19.392Z,9.40
2023-11-03T17:10:15.913Z,9.20
2023-11-03T17:12:53.728Z,9.20
2023-11-03T17:15:27.782Z,9.10
2023-11-03T17:17:54.597Z,9.10
2023-11-03T17:22:49.306Z,9.00
2023-11-03T17:25:19.031Z,9.10
2023-11-03T17:30:16.037Z,9.00
2023-11-03T17:32:49.134Z,9.00
2023-11-03T17:35:23.407Z,9.00
2023-11-03T17:37:52.104Z,9.10
2023-11-03T17:40:21.729Z,9.10
2023-11-03T17:42:52.005Z,9.10
2023-11-03T17:45:21.119Z,9.10
2023-11-03T17:47:49.573Z,9.20
2023-11-03T17:50:20.198Z,9.30
2023-11-03T17:52:47.648Z,9.20
2023-11-03T17:55:14.797Z,9.20
2023-11-03T17:57:43.630Z,9.10
2023-11-03T18:00:15.611Z,9.10
2023-11-03T18:02:43.653Z,9.10
2023-11-03T18:05:14.697Z,8.80
2023-11-03T18:10:12.715Z,8.80
2023-11-03T18:12:41.136Z,8.80
2023-11-03T18:15:11.060Z,8.70
2023-11-03T18:17:38.702Z,8.70
2023-11-03T18:20:18.097Z,8.60
2023-11-03T18:22:47.337Z,8.60
2023-11-03T18:25:14.335Z,8.60
2023-11-03T18:27:41.120Z,8.50
2023-11-03T18:30:10.802Z,8.50
2023-11-03T18:32:39.195Z,8.50
2023-11-03T18:35:11.627Z,8.40
2023-11-03T18:37:40.578Z,8.40
2023-11-03T18:40:13.763Z,8.40
2023-11-03T18:42:41.557Z,8.30
2023-11-03T18:45:09.571Z,8.30
2023-11-03T18:47:36.565Z,8.30
2023-11-03T18:55:57.008Z,8.20
2023-11-03T18:58:31.440Z,8.60
2023-11-03T19:04:41.566Z,8.40
2023-11-03T19:07:28.348Z,8.20
2023-11-03T19:13:36.989Z,8.20
2023-11-03T19:16:04.661Z,8.10
2023-11-03T19:18:36.753Z,8.10
2023-11-03T19:21:07.923Z,8.10
2023-11-03T19:23:36.264Z,8.10
2023-11-03T19:28:33.215Z,8.00
2023-11-03T19:31:03.681Z,7.90
2023-11-03T19:33:32.021Z,7.90
2023-11-03T19:36:00.737Z,7.80
2023-11-03T19:40:54.883Z,7.80
2023-11-03T19:45:49.001Z,7.70
2023-11-03T19:50:44.307Z,7.60
2023-11-03T19:55:40.770Z,7.60
2023-11-03T20:03:02.088Z,7.60
2023-11-03T20:07:56.093Z,7.70
2023-11-03T20:15:17.356Z,7.90
2023-11-03T20:22:39.243Z,8.00
2023-11-03T20:27:36.120Z,8.10
2023-11-03T20:30:04.389Z,8.10
2023-11-03T20:32:31.152Z,8.10
2023-11-03T20:47:14.034Z,8.30
2023-11-03T20:49:41.098Z,8.30
2023-11-03T20:54:37.824Z,8.20
2023-11-03T21:02:00.999Z,8.20
2023-11-03T21:04:29.425Z,8.30
2023-11-03T21:11:51.305Z,8.40
2023-11-03T21:14:18.322Z,8.40
2023-11-03T21:16:45.360Z,8.50
2023-11-03T21:19:12.157Z,8.50
2023-11-03T21:24:09.361Z,8.50
2023-11-03T21:29:03.859Z,8.60
2023-11-03T21:31:35.148Z,8.50
2023-11-03T21:34:02.002Z,8.50
2023-11-03T21:38:59.747Z,8.50
2023-11-03T21:41:26.631Z,8.40
2023-11-03T21:46:25.554Z,8.40
2023-11-03T21:48:53.642Z,8.40
2023-11-03T21:51:21.281Z,8.50
2023-11-03T21:53:48.960Z,8.40
2023-11-03T21:58:43.761Z,9.10
2023-11-03T22:01:11.406Z,8.30
2023-11-03T22:03:38.713Z,8.20
2023-11-03T22:06:07.109Z,8.10
2023-11-03T22:08:34.965Z,8.00
2023-11-03T22:13:31.585Z,8.00
2023-11-03T22:16:02.020Z,8.00
2023-11-03T22:18:31.821Z,8.00
2023-11-03T22:20:58.758Z,8.10
2023-11-03T22:23:25.501Z,8.10
2023-11-03T22:25:54.101Z,8.10
2023-11-03T22:28:24.182Z,8.20
2023-11-03T22:33:21.631Z,8.30
2023-11-03T22:35:48.757Z,8.70
2023-11-03T22:38:15.442Z,8.40
2023-11-03T22:40:42.187Z,8.40
2023-11-03T22:43:08.937Z,8.50
2023-11-03T22:45:35.755Z,8.40
2023-11-03T22:48:04.753Z,8.50
2023-11-03T22:50:31.804Z,8.40
2023-11-03T22:52:58.614Z,8.40
2023-11-03T22:55:25.335Z,8.40
2023-11-03T22:57:52.397Z,8.50
2023-11-03T23:00:25.800Z,8.50
2023-11-03T23:02:53.138Z,8.50
2023-11-03T23:05:21.142Z,8.60
2023-11-03T23:07:47.946Z,8.60
2023-11-03T23:10:15.456Z,8.60
2023-11-03T23:12:42.567Z,8.70
2023-11-03T23:15:09.900Z,8.70
2023-11-03T23:17:37.600Z,8.70
2023-11-03T23:20:12.843Z,8.80
2023-11-03T23:22:40.609Z,8.80
2023-11-03T23:25:11.935Z,8.80
2023-11-03T23:27:43.500Z,8.80
2023-11-03T23:30:11.834Z,8.80
2023-11-03T23:32:39.963Z,8.80
2023-11-03T23:35:07.325Z,8.90
2023-11-03T23:37:34.131Z,8.90
2023-11-03T23:40:00.933Z,8.90
2023-11-03T23:42:27.741Z,8.90
2023-11-03T23:44:54.847Z,8.90
2023-11-03T23:47:21.755Z,9.00
2023-11-03T23:49:48.640Z,9.00
2023-11-03T23:52:15.347Z,9.00
2023-11-03T23:54:42.111Z,9.00
2023-11-03T23:57:09.720Z,9.00
2023-11-03T23:59:36.509Z,9.00
